sensor_id;sensor_type;location;lat;lon;timestamp;P1;durP1;ratioP1;P2;durP2;ratioP2
55224;SDS011;41091;49.400;8.684;2023-07-24T00:00:13;6.50;;;4.03;;
55224;SDS011;41091;49.400;8.684;2023-07-24T00:02:39;7.00;;;3.97;;
55224;SDS011;41091;49.400;8.684;2023-07-24T00:05:05;5.10;;;3.83;;
55224;SDS011;41091;49.400;8.684;2023-07-24T00:07:30;4.78;;;3.80;;
55224;SDS011;41091;49.400;8.684;2023-07-24T00:09:55;4.43;;;4.07;;
55224;SDS011;41091;49.400;8.684;2023-07-24T00:12:24;4.63;;;3.97;;
55224;SDS011;41091;49.400;8.684;2023-07-24T00:14:51;5.13;;;3.92;;
55224;SDS011;41091;49.400;8.684;2023-07-24T00:17:19;7.32;;;3.55;;
55224;SDS011;41091;49.400;8.684;2023-07-24T00:19:44;5.45;;;4.07;;
55224;SDS011;41091;49.400;8.684;2023-07-24T00:22:15;4.45;;;3.50;;
55224;SDS011;41091;49.400;8.684;2023-07-24T00:24:42;4.57;;;4.00;;
55224;SDS011;41091;49.400;8.684;2023-07-24T00:27:08;4.13;;;3.72;;
55224;SDS011;41091;49.400;8.684;2023-07-24T00:29:33;3.83;;;3.45;;
55224;SDS011;41091;49.400;8.684;2023-07-24T00:31:58;4.30;;;3.88;;
55224;SDS011;41091;49.400;8.684;2023-07-24T00:34:23;5.65;;;3.92;;
55224;SDS011;41091;49.400;8.684;2023-07-24T00:36:49;7.05;;;3.97;;
55224;SDS011;41091;49.400;8.684;2023-07-24T00:39:16;6.75;;;4.70;;
55224;SDS011;41091;49.400;8.684;2023-07-24T00:41:42;6.50;;;4.35;;
55224;SDS011;41091;49.400;8.684;2023-07-24T00:44:08;6.45;;;4.13;;
55224;SDS011;41091;49.400;8.684;2023-07-24T00:46:33;6.05;;;4.25;;
55224;SDS011;41091;49.400;8.684;2023-07-24T00:49:01;5.22;;;4.30;;
55224;SDS011;41091;49.400;8.684;2023-07-24T00:51:31;6.28;;;4.97;;
55224;SDS011;41091;49.400;8.684;2023-07-24T00:54:00;5.45;;;4.55;;
55224;SDS011;41091;49.400;8.684;2023-07-24T00:56:26;6.47;;;4.60;;
55224;SDS011;41091;49.400;8.684;2023-07-24T00:58:57;6.28;;;4.13;;
55224;SDS011;41091;49.400;8.684;2023-07-24T01:01:25;4.45;;;4.05;;
55224;SDS011;41091;49.400;8.684;2023-07-24T01:03:51;6.00;;;4.50;;
55224;SDS011;41091;49.400;8.684;2023-07-24T01:06:19;6.13;;;4.35;;
55224;SDS011;41091;49.400;8.684;2023-07-24T01:08:44;6.13;;;4.28;;
55224;SDS011;41091;49.400;8.684;2023-07-24T01:11:11;7.07;;;5.05;;
55224;SDS011;41091;49.400;8.684;2023-07-24T01:13:40;5.03;;;4.25;;
55224;SDS011;41091;49.400;8.684;2023-07-24T01:16:14;7.70;;;5.70;;
55224;SDS011;41091;49.400;8.684;2023-07-24T01:18:43;5.38;;;4.85;;
55224;SDS011;41091;49.400;8.684;2023-07-24T01:21:09;5.68;;;4.70;;
55224;SDS011;41091;49.400;8.684;2023-07-24T01:26:30;5.80;;;4.55;;
55224;SDS011;41091;49.400;8.684;2023-07-24T01:28:58;5.28;;;4.45;;
55224;SDS011;41091;49.400;8.684;2023-07-24T01:31:23;5.00;;;4.38;;
55224;SDS011;41091;49.400;8.684;2023-07-24T01:33:51;6.55;;;4.53;;
55224;SDS011;41091;49.400;8.684;2023-07-24T01:36:16;4.43;;;3.55;;
55224;SDS011;41091;49.400;8.684;2023-07-24T01:38:43;8.32;;;4.35;;
55224;SDS011;41091;49.400;8.684;2023-07-24T01:41:09;4.78;;;3.55;;
55224;SDS011;41091;49.400;8.684;2023-07-24T01:43:34;3.92;;;3.60;;
55224;SDS011;41091;49.400;8.684;2023-07-24T01:46:02;4.38;;;3.45;;
55224;SDS011;41091;49.400;8.684;2023-07-24T01:48:27;4.00;;;3.47;;
55224;SDS011;41091;49.400;8.684;2023-07-24T01:50:53;4.40;;;4.00;;
55224;SDS011;41091;49.400;8.684;2023-07-24T01:53:21;8.13;;;3.95;;
55224;SDS011;41091;49.400;8.684;2023-07-24T01:55:51;4.78;;;4.28;;
55224;SDS011;41091;49.400;8.684;2023-07-24T01:58:16;8.25;;;4.93;;
55224;SDS011;41091;49.400;8.684;2023-07-24T02:00:44;5.68;;;3.97;;
55224;SDS011;41091;49.400;8.684;2023-07-24T02:03:09;5.03;;;4.13;;
55224;SDS011;41091;49.400;8.684;2023-07-24T02:05:37;4.97;;;4.50;;
55224;SDS011;41091;49.400;8.684;2023-07-24T02:08:05;6.60;;;4.07;;
55224;SDS011;41091;49.400;8.684;2023-07-24T02:13:06;13.10;;;4.20;;
55224;SDS011;41091;49.400;8.684;2023-07-24T02:15:32;5.03;;;4.35;;
55224;SDS011;41091;49.400;8.684;2023-07-24T02:17:57;5.00;;;3.65;;
55224;SDS011;41091;49.400;8.684;2023-07-24T02:20:23;4.20;;;3.90;;
55224;SDS011;41091;49.400;8.684;2023-07-24T02:22:50;3.97;;;3.58;;
55224;SDS011;41091;49.400;8.684;2023-07-24T02:25:16;5.65;;;4.60;;
55224;SDS011;41091;49.400;8.684;2023-07-24T02:27:41;3.95;;;3.55;;
55224;SDS011;41091;49.400;8.684;2023-07-24T02:30:09;6.55;;;3.72;;
55224;SDS011;41091;49.400;8.684;2023-07-24T02:32:35;4.07;;;3.50;;
55224;SDS011;41091;49.400;8.684;2023-07-24T02:35:02;3.88;;;3.58;;
55224;SDS011;41091;49.400;8.684;2023-07-24T02:37:28;4.75;;;4.05;;
55224;SDS011;41091;49.400;8.684;2023-07-24T02:39:56;4.88;;;3.95;;
55224;SDS011;41091;49.400;8.684;2023-07-24T02:42:23;6.45;;;4.43;;
55224;SDS011;41091;49.400;8.684;2023-07-24T02:44:49;5.40;;;3.55;;
55224;SDS011;41091;49.400;8.684;2023-07-24T02:47:14;4.55;;;3.90;;
55224;SDS011;41091;49.400;8.684;2023-07-24T02:49:42;5.43;;;3.90;;
55224;SDS011;41091;49.400;8.684;2023-07-24T02:52:07;9.23;;;3.55;;
55224;SDS011;41091;49.400;8.684;2023-07-24T02:54:33;3.70;;;3.40;;
55224;SDS011;41091;49.400;8.684;2023-07-24T02:57:00;3.90;;;3.60;;
55224;SDS011;41091;49.400;8.684;2023-07-24T02:59:28;4.25;;;3.80;;
55224;SDS011;41091;49.400;8.684;2023-07-24T03:01:54;3.85;;;3.55;;
55224;SDS011;41091;49.400;8.684;2023-07-24T03:04:19;3.88;;;3.58;;
55224;SDS011;41091;49.400;8.684;2023-07-24T03:06:45;4.97;;;3.78;;
55224;SDS011;41091;49.400;8.684;2023-07-24T03:09:14;3.70;;;3.40;;
55224;SDS011;41091;49.400;8.684;2023-07-24T03:11:40;4.05;;;3.75;;
55224;SDS011;41091;49.400;8.684;2023-07-24T03:14:08;9.98;;;3.63;;
55224;SDS011;41091;49.400;8.684;2023-07-24T03:16:33;4.10;;;3.70;;
55224;SDS011;41091;49.400;8.684;2023-07-24T03:18:58;4.32;;;3.58;;
55224;SDS011;41091;49.400;8.684;2023-07-24T03:21:23;4.30;;;3.90;;
55224;SDS011;41091;49.400;8.684;2023-07-24T03:23:51;6.93;;;4.25;;
55224;SDS011;41091;49.400;8.684;2023-07-24T03:26:19;3.75;;;3.42;;
55224;SDS011;41091;49.400;8.684;2023-07-24T03:28:44;12.38;;;3.70;;
55224;SDS011;41091;49.400;8.684;2023-07-24T03:31:10;5.75;;;4.18;;
55224;SDS011;41091;49.400;8.684;2023-07-24T03:33:37;4.10;;;3.80;;
55224;SDS011;41091;49.400;8.684;2023-07-24T03:36:03;3.85;;;3.53;;
55224;SDS011;41091;49.400;8.684;2023-07-24T03:38:28;5.07;;;3.55;;
55224;SDS011;41091;49.400;8.684;2023-07-24T03:40:54;3.67;;;3.38;;
55224;SDS011;41091;49.400;8.684;2023-07-24T03:43:19;3.88;;;3.38;;
55224;SDS011;41091;49.400;8.684;2023-07-24T03:45:44;7.78;;;3.90;;
55224;SDS011;41091;49.400;8.684;2023-07-24T03:48:10;4.28;;;3.45;;
55224;SDS011;41091;49.400;8.684;2023-07-24T03:50:35;6.20;;;4.20;;
55224;SDS011;41091;49.400;8.684;2023-07-24T03:53:00;4.90;;;4.13;;
55224;SDS011;41091;49.400;8.684;2023-07-24T03:55:26;9.77;;;3.55;;
55224;SDS011;41091;49.400;8.684;2023-07-24T03:57:51;5.72;;;4.53;;
55224;SDS011;41091;49.400;8.684;2023-07-24T04:00:17;6.43;;;3.72;;
55224;SDS011;41091;49.400;8.684;2023-07-24T04:02:43;6.97;;;4.28;;
55224;SDS011;41091;49.400;8.684;2023-07-24T04:05:11;8.63;;;4.15;;
55224;SDS011;41091;49.400;8.684;2023-07-24T04:07:39;5.05;;;4.30;;
55224;SDS011;41091;49.400;8.684;2023-07-24T04:10:04;5.88;;;4.00;;
55224;SDS011;41091;49.400;8.684;2023-07-24T04:12:30;5.68;;;4.13;;
55224;SDS011;41091;49.400;8.684;2023-07-24T04:14:55;5.18;;;4.10;;
55224;SDS011;41091;49.400;8.684;2023-07-24T04:17:21;4.00;;;3.47;;
55224;SDS011;41091;49.400;8.684;2023-07-24T04:19:46;7.50;;;4.65;;
55224;SDS011;41091;49.400;8.684;2023-07-24T04:22:12;8.35;;;3.95;;
55224;SDS011;41091;49.400;8.684;2023-07-24T04:24:39;5.65;;;4.30;;
55224;SDS011;41091;49.400;8.684;2023-07-24T04:27:09;5.38;;;4.65;;
55224;SDS011;41091;49.400;8.684;2023-07-24T04:29:37;6.03;;;4.43;;
55224;SDS011;41091;49.400;8.684;2023-07-24T04:32:03;5.13;;;3.80;;
55224;SDS011;41091;49.400;8.684;2023-07-24T04:34:31;4.47;;;3.83;;
55224;SDS011;41091;49.400;8.684;2023-07-24T04:36:58;7.50;;;5.15;;
55224;SDS011;41091;49.400;8.684;2023-07-24T04:39:23;7.30;;;4.22;;
55224;SDS011;41091;49.400;8.684;2023-07-24T04:41:48;7.20;;;3.83;;
55224;SDS011;41091;49.400;8.684;2023-07-24T04:44:14;4.65;;;3.80;;
55224;SDS011;41091;49.400;8.684;2023-07-24T04:46:41;5.72;;;4.60;;
55224;SDS011;41091;49.400;8.684;2023-07-24T04:49:07;5.88;;;4.20;;
55224;SDS011;41091;49.400;8.684;2023-07-24T04:51:37;4.65;;;4.22;;
55224;SDS011;41091;49.400;8.684;2023-07-24T04:54:05;4.70;;;4.13;;
55224;SDS011;41091;49.400;8.684;2023-07-24T04:56:30;7.20;;;4.38;;
55224;SDS011;41091;49.400;8.684;2023-07-24T04:58:55;6.05;;;4.38;;
55224;SDS011;41091;49.400;8.684;2023-07-24T05:01:23;4.70;;;4.30;;
55224;SDS011;41091;49.400;8.684;2023-07-24T05:03:49;5.97;;;4.78;;
55224;SDS011;41091;49.400;8.684;2023-07-24T05:06:14;6.68;;;4.53;;
55224;SDS011;41091;49.400;8.684;2023-07-24T05:08:39;6.55;;;4.93;;
55224;SDS011;41091;49.400;8.684;2023-07-24T05:11:05;6.55;;;5.10;;
55224;SDS011;41091;49.400;8.684;2023-07-24T05:13:32;5.03;;;3.88;;
55224;SDS011;41091;49.400;8.684;2023-07-24T05:15:57;6.05;;;4.65;;
55224;SDS011;41091;49.400;8.684;2023-07-24T05:18:25;6.68;;;5.45;;
55224;SDS011;41091;49.400;8.684;2023-07-24T05:20:51;6.35;;;4.68;;
55224;SDS011;41091;49.400;8.684;2023-07-24T05:23:18;6.15;;;4.80;;
55224;SDS011;41091;49.400;8.684;2023-07-24T05:25:46;6.10;;;4.20;;
55224;SDS011;41091;49.400;8.684;2023-07-24T05:28:12;5.15;;;4.65;;
55224;SDS011;41091;49.400;8.684;2023-07-24T05:30:37;7.35;;;4.65;;
55224;SDS011;41091;49.400;8.684;2023-07-24T05:33:02;6.82;;;4.80;;
55224;SDS011;41091;49.400;8.684;2023-07-24T05:35:28;4.88;;;4.43;;
55224;SDS011;41091;49.400;8.684;2023-07-24T05:37:53;5.22;;;4.72;;
55224;SDS011;41091;49.400;8.684;2023-07-24T05:40:23;5.43;;;4.60;;
55224;SDS011;41091;49.400;8.684;2023-07-24T05:42:48;6.85;;;5.10;;
55224;SDS011;41091;49.400;8.684;2023-07-24T05:45:16;8.57;;;5.40;;
55224;SDS011;41091;49.400;8.684;2023-07-24T05:50:09;4.93;;;4.37;;
55224;SDS011;41091;49.400;8.684;2023-07-24T05:52:34;9.40;;;4.20;;
55224;SDS011;41091;49.400;8.684;2023-07-24T05:55:02;5.35;;;4.85;;
55224;SDS011;41091;49.400;8.684;2023-07-24T05:57:28;5.82;;;5.25;;
55224;SDS011;41091;49.400;8.684;2023-07-24T05:59:53;5.85;;;4.30;;
55224;SDS011;41091;49.400;8.684;2023-07-24T06:02:21;6.82;;;5.68;;
55224;SDS011;41091;49.400;8.684;2023-07-24T06:04:49;10.43;;;5.13;;
55224;SDS011;41091;49.400;8.684;2023-07-24T06:07:14;7.00;;;5.18;;
55224;SDS011;41091;49.400;8.684;2023-07-24T06:09:44;10.50;;;5.07;;
55224;SDS011;41091;49.400;8.684;2023-07-24T06:12:14;8.20;;;5.32;;
55224;SDS011;41091;49.400;8.684;2023-07-24T06:14:40;8.63;;;5.03;;
55224;SDS011;41091;49.400;8.684;2023-07-24T06:17:07;6.88;;;5.07;;
55224;SDS011;41091;49.400;8.684;2023-07-24T06:19:35;4.82;;;4.38;;
55224;SDS011;41091;49.400;8.684;2023-07-24T06:22:00;5.90;;;5.00;;
55224;SDS011;41091;49.400;8.684;2023-07-24T06:24:25;7.90;;;5.55;;
55224;SDS011;41091;49.400;8.684;2023-07-24T06:26:51;5.78;;;5.22;;
55224;SDS011;41091;49.400;8.684;2023-07-24T06:29:16;7.90;;;4.90;;
55224;SDS011;41091;49.400;8.684;2023-07-24T06:31:42;10.82;;;6.10;;
55224;SDS011;41091;49.400;8.684;2023-07-24T06:34:09;6.35;;;5.13;;
55224;SDS011;41091;49.400;8.684;2023-07-24T06:36:37;10.43;;;4.82;;
55224;SDS011;41091;49.400;8.684;2023-07-24T06:39:04;11.63;;;5.55;;
55224;SDS011;41091;49.400;8.684;2023-07-24T06:41:30;11.43;;;5.65;;
55224;SDS011;41091;49.400;8.684;2023-07-24T06:43:55;9.55;;;5.40;;
55224;SDS011;41091;49.400;8.684;2023-07-24T06:46:20;8.50;;;5.65;;
55224;SDS011;41091;49.400;8.684;2023-07-24T06:48:46;14.90;;;6.75;;
55224;SDS011;41091;49.400;8.684;2023-07-24T06:51:11;8.20;;;6.03;;
55224;SDS011;41091;49.400;8.684;2023-07-24T06:53:39;9.82;;;5.88;;
55224;SDS011;41091;49.400;8.684;2023-07-24T06:56:06;8.05;;;5.55;;
55224;SDS011;41091;49.400;8.684;2023-07-24T06:58:32;10.23;;;6.22;;
55224;SDS011;41091;49.400;8.684;2023-07-24T07:00:57;6.30;;;4.32;;
55224;SDS011;41091;49.400;8.684;2023-07-24T07:03:25;6.95;;;5.18;;
55224;SDS011;41091;49.400;8.684;2023-07-24T07:05:58;12.30;;;5.97;;
55224;SDS011;41091;49.400;8.684;2023-07-24T07:08:26;10.57;;;5.90;;
55224;SDS011;41091;49.400;8.684;2023-07-24T07:10:58;10.20;;;5.65;;
55224;SDS011;41091;49.400;8.684;2023-07-24T07:13:24;13.90;;;6.82;;
55224;SDS011;41091;49.400;8.684;2023-07-24T07:15:50;7.85;;;6.47;;
55224;SDS011;41091;49.400;8.684;2023-07-24T07:18:15;8.68;;;5.63;;
55224;SDS011;41091;49.400;8.684;2023-07-24T07:20:47;12.27;;;5.43;;
55224;SDS011;41091;49.400;8.684;2023-07-24T07:23:14;9.98;;;5.53;;
55224;SDS011;41091;49.400;8.684;2023-07-24T07:25:39;5.88;;;5.13;;
55224;SDS011;41091;49.400;8.684;2023-07-24T07:28:04;8.27;;;5.40;;
55224;SDS011;41091;49.400;8.684;2023-07-24T07:30:30;9.68;;;6.35;;
55224;SDS011;41091;49.400;8.684;2023-07-24T07:32:55;15.18;;;5.60;;
55224;SDS011;41091;49.400;8.684;2023-07-24T07:35:20;18.30;;;5.70;;
55224;SDS011;41091;49.400;8.684;2023-07-24T07:37:48;17.00;;;5.50;;
55224;SDS011;41091;49.400;8.684;2023-07-24T07:40:13;10.25;;;5.90;;
55224;SDS011;41091;49.400;8.684;2023-07-24T07:42:41;9.52;;;5.97;;
55224;SDS011;41091;49.400;8.684;2023-07-24T07:45:06;9.80;;;5.90;;
55224;SDS011;41091;49.400;8.684;2023-07-24T07:47:32;9.65;;;6.32;;
55224;SDS011;41091;49.400;8.684;2023-07-24T07:49:59;9.80;;;6.35;;
55224;SDS011;41091;49.400;8.684;2023-07-24T07:52:25;11.43;;;6.15;;
55224;SDS011;41091;49.400;8.684;2023-07-24T07:54:51;10.02;;;6.80;;
55224;SDS011;41091;49.400;8.684;2023-07-24T07:57:16;14.27;;;6.30;;
55224;SDS011;41091;49.400;8.684;2023-07-24T07:59:42;15.80;;;6.20;;
55224;SDS011;41091;49.400;8.684;2023-07-24T08:02:07;11.27;;;5.70;;
55224;SDS011;41091;49.400;8.684;2023-07-24T08:04:33;12.20;;;6.72;;
55224;SDS011;41091;49.400;8.684;2023-07-24T08:06:58;11.32;;;6.35;;
55224;SDS011;41091;49.400;8.684;2023-07-24T08:09:23;10.45;;;6.75;;
55224;SDS011;41091;49.400;8.684;2023-07-24T08:11:49;7.28;;;6.22;;
55224;SDS011;41091;49.400;8.684;2023-07-24T08:14:17;10.32;;;6.47;;
55224;SDS011;41091;49.400;8.684;2023-07-24T08:16:43;13.45;;;5.72;;
55224;SDS011;41091;49.400;8.684;2023-07-24T08:19:11;9.80;;;5.82;;
55224;SDS011;41091;49.400;8.684;2023-07-24T08:21:38;9.30;;;6.28;;
55224;SDS011;41091;49.400;8.684;2023-07-24T08:24:05;13.35;;;5.45;;
55224;SDS011;41091;49.400;8.684;2023-07-24T08:26:31;8.75;;;6.03;;
55224;SDS011;41091;49.400;8.684;2023-07-24T08:28:58;8.98;;;5.70;;
55224;SDS011;41091;49.400;8.684;2023-07-24T08:31:23;7.45;;;5.43;;
55224;SDS011;41091;49.400;8.684;2023-07-24T08:33:49;12.23;;;5.72;;
55224;SDS011;41091;49.400;8.684;2023-07-24T08:36:14;6.95;;;5.43;;
55224;SDS011;41091;49.400;8.684;2023-07-24T08:38:40;7.15;;;5.47;;
55224;SDS011;41091;49.400;8.684;2023-07-24T08:43:39;8.40;;;5.95;;
55224;SDS011;41091;49.400;8.684;2023-07-24T08:46:06;14.20;;;5.95;;
55224;SDS011;41091;49.400;8.684;2023-07-24T08:48:38;10.75;;;5.53;;
55224;SDS011;41091;49.400;8.684;2023-07-24T08:53:29;9.52;;;5.75;;
55224;SDS011;41091;49.400;8.684;2023-07-24T08:55:57;10.45;;;6.55;;
55224;SDS011;41091;49.400;8.684;2023-07-24T08:58:27;9.18;;;5.85;;
55224;SDS011;41091;49.400;8.684;2023-07-24T09:00:52;9.80;;;5.57;;
55224;SDS011;41091;49.400;8.684;2023-07-24T09:03:20;11.18;;;6.38;;
55224;SDS011;41091;49.400;8.684;2023-07-24T09:05:45;8.50;;;6.47;;
55224;SDS011;41091;49.400;8.684;2023-07-24T09:08:15;10.82;;;5.45;;
55224;SDS011;41091;49.400;8.684;2023-07-24T09:10:41;11.23;;;6.35;;
55224;SDS011;41091;49.400;8.684;2023-07-24T09:13:07;6.68;;;5.60;;
55224;SDS011;41091;49.400;8.684;2023-07-24T09:15:47;7.32;;;6.20;;
55224;SDS011;41091;49.400;8.684;2023-07-24T09:20:40;7.68;;;5.80;;
55224;SDS011;41091;49.400;8.684;2023-07-24T09:23:11;11.10;;;5.93;;
55224;SDS011;41091;49.400;8.684;2023-07-24T09:25:38;9.35;;;5.38;;
55224;SDS011;41091;49.400;8.684;2023-07-24T09:28:08;13.63;;;6.30;;
55224;SDS011;41091;49.400;8.684;2023-07-24T09:30:41;12.32;;;6.03;;
55224;SDS011;41091;49.400;8.684;2023-07-24T09:33:09;8.18;;;5.90;;
55224;SDS011;41091;49.400;8.684;2023-07-24T09:35:34;8.30;;;6.13;;
55224;SDS011;41091;49.400;8.684;2023-07-24T09:38:03;8.23;;;5.28;;
55224;SDS011;41091;49.400;8.684;2023-07-24T09:40:37;15.43;;;5.38;;
55224;SDS011;41091;49.400;8.684;2023-07-24T09:43:13;6.13;;;5.53;;
55224;SDS011;41091;49.400;8.684;2023-07-24T09:45:57;8.38;;;5.03;;
55224;SDS011;41091;49.400;8.684;2023-07-24T09:48:25;10.77;;;6.03;;
55224;SDS011;41091;49.400;8.684;2023-07-24T09:50:58;8.55;;;6.13;;
55224;SDS011;41091;49.400;8.684;2023-07-24T09:56:06;9.40;;;5.88;;
55224;SDS011;41091;49.400;8.684;2023-07-24T09:58:34;9.23;;;5.63;;
55224;SDS011;41091;49.400;8.684;2023-07-24T10:01:07;8.88;;;5.32;;
55224;SDS011;41091;49.400;8.684;2023-07-24T10:03:34;5.88;;;4.30;;
55224;SDS011;41091;49.400;8.684;2023-07-24T10:06:02;7.05;;;4.32;;
55224;SDS011;41091;49.400;8.684;2023-07-24T10:08:28;6.50;;;5.90;;
55224;SDS011;41091;49.400;8.684;2023-07-24T10:10:54;6.68;;;5.00;;
55224;SDS011;41091;49.400;8.684;2023-07-24T10:13:20;6.65;;;4.32;;
55224;SDS011;41091;49.400;8.684;2023-07-24T10:15:46;6.18;;;4.75;;
55224;SDS011;41091;49.400;8.684;2023-07-24T10:18:15;7.93;;;5.13;;
55224;SDS011;41091;49.400;8.684;2023-07-24T10:20:44;6.55;;;5.15;;
55224;SDS011;41091;49.400;8.684;2023-07-24T10:23:16;7.18;;;5.95;;
55224;SDS011;41091;49.400;8.684;2023-07-24T10:25:45;6.35;;;4.95;;
55224;SDS011;41091;49.400;8.684;2023-07-24T10:28:15;13.07;;;5.80;;
55224;SDS011;41091;49.400;8.684;2023-07-24T10:30:43;7.30;;;4.70;;
55224;SDS011;41091;49.400;8.684;2023-07-24T10:33:13;8.02;;;5.00;;
55224;SDS011;41091;49.400;8.684;2023-07-24T10:35:47;9.82;;;5.03;;
55224;SDS011;41091;49.400;8.684;2023-07-24T10:38:40;7.55;;;4.82;;
55224;SDS011;41091;49.400;8.684;2023-07-24T10:41:07;5.03;;;4.53;;
55224;SDS011;41091;49.400;8.684;2023-07-24T10:46:37;5.40;;;4.90;;
55224;SDS011;41091;49.400;8.684;2023-07-24T10:49:06;8.35;;;5.07;;
55224;SDS011;41091;49.400;8.684;2023-07-24T10:51:34;5.90;;;4.78;;
55224;SDS011;41091;49.400;8.684;2023-07-24T10:54:02;17.15;;;4.80;;
55224;SDS011;41091;49.400;8.684;2023-07-24T10:56:28;7.40;;;4.22;;
55224;SDS011;41091;49.400;8.684;2023-07-24T10:58:56;6.72;;;4.70;;
55224;SDS011;41091;49.400;8.684;2023-07-24T11:01:24;11.98;;;4.95;;
55224;SDS011;41091;49.400;8.684;2023-07-24T11:03:49;6.15;;;5.38;;
55224;SDS011;41091;49.400;8.684;2023-07-24T11:06:18;7.70;;;5.20;;
55224;SDS011;41091;49.400;8.684;2023-07-24T11:08:56;7.40;;;4.80;;
55224;SDS011;41091;49.400;8.684;2023-07-24T11:11:29;8.95;;;5.35;;
55224;SDS011;41091;49.400;8.684;2023-07-24T11:13:55;6.82;;;4.50;;
55224;SDS011;41091;49.400;8.684;2023-07-24T11:16:21;10.10;;;4.55;;
55224;SDS011;41091;49.400;8.684;2023-07-24T11:18:46;9.48;;;5.63;;
55224;SDS011;41091;49.400;8.684;2023-07-24T11:21:12;9.07;;;5.47;;
55224;SDS011;41091;49.400;8.684;2023-07-24T11:23:44;8.20;;;4.88;;
55224;SDS011;41091;49.400;8.684;2023-07-24T11:26:23;6.03;;;4.78;;
55224;SDS011;41091;49.400;8.684;2023-07-24T11:28:50;9.82;;;4.95;;
55224;SDS011;41091;49.400;8.684;2023-07-24T11:31:16;10.05;;;5.68;;
55224;SDS011;41091;49.400;8.684;2023-07-24T11:33:50;6.35;;;5.35;;
55224;SDS011;41091;49.400;8.684;2023-07-24T11:36:19;5.53;;;4.47;;
55224;SDS011;41091;49.400;8.684;2023-07-24T11:38:45;15.85;;;8.30;;
55224;SDS011;41091;49.400;8.684;2023-07-24T11:41:11;5.50;;;4.93;;
55224;SDS011;41091;49.400;8.684;2023-07-24T11:43:44;7.45;;;5.13;;
55224;SDS011;41091;49.400;8.684;2023-07-24T11:46:10;6.10;;;4.45;;
55224;SDS011;41091;49.400;8.684;2023-07-24T11:48:40;6.68;;;4.80;;
55224;SDS011;41091;49.400;8.684;2023-07-24T11:51:08;14.27;;;5.00;;
55224;SDS011;41091;49.400;8.684;2023-07-24T11:53:40;5.43;;;4.82;;
55224;SDS011;41091;49.400;8.684;2023-07-24T11:56:12;4.28;;;3.95;;
55224;SDS011;41091;49.400;8.684;2023-07-24T11:58:39;5.28;;;4.78;;
55224;SDS011;41091;49.400;8.684;2023-07-24T12:01:07;7.75;;;5.28;;
55224;SDS011;41091;49.400;8.684;2023-07-24T12:03:35;9.10;;;4.68;;
55224;SDS011;41091;49.400;8.684;2023-07-24T12:06:03;6.75;;;5.00;;
55224;SDS011;41091;49.400;8.684;2023-07-24T12:08:32;7.82;;;5.40;;
55224;SDS011;41091;49.400;8.684;2023-07-24T12:13:26;10.45;;;4.97;;
55224;SDS011;41091;49.400;8.684;2023-07-24T12:15:53;7.30;;;5.28;;
55224;SDS011;41091;49.400;8.684;2023-07-24T12:18:21;8.50;;;5.68;;
55224;SDS011;41091;49.400;8.684;2023-07-24T12:20:46;6.03;;;5.32;;
55224;SDS011;41091;49.400;8.684;2023-07-24T12:23:14;6.22;;;4.60;;
55224;SDS011;41091;49.400;8.684;2023-07-24T12:25:40;5.22;;;4.43;;
55224;SDS011;41091;49.400;8.684;2023-07-24T12:28:06;8.75;;;5.00;;
55224;SDS011;41091;49.400;8.684;2023-07-24T12:30:31;7.22;;;4.43;;
55224;SDS011;41091;49.400;8.684;2023-07-24T12:32:57;5.68;;;4.63;;
55224;SDS011;41091;49.400;8.684;2023-07-24T12:35:24;8.30;;;5.38;;
55224;SDS011;41091;49.400;8.684;2023-07-24T12:37:50;8.10;;;4.88;;
55224;SDS011;41091;49.400;8.684;2023-07-24T12:40:15;6.38;;;4.45;;
55224;SDS011;41091;49.400;8.684;2023-07-24T12:42:43;8.52;;;5.30;;
55224;SDS011;41091;49.400;8.684;2023-07-24T12:45:08;8.50;;;5.57;;
55224;SDS011;41091;49.400;8.684;2023-07-24T12:47:36;5.13;;;4.63;;
55224;SDS011;41091;49.400;8.684;2023-07-24T12:50:04;8.68;;;5.47;;
55224;SDS011;41091;49.400;8.684;2023-07-24T12:52:32;8.20;;;4.43;;
55224;SDS011;41091;49.400;8.684;2023-07-24T12:54:57;5.50;;;5.00;;
55224;SDS011;41091;49.400;8.684;2023-07-24T12:57:25;7.88;;;5.28;;
55224;SDS011;41091;49.400;8.684;2023-07-24T12:59:51;7.05;;;4.68;;
55224;SDS011;41091;49.400;8.684;2023-07-24T13:02:16;6.75;;;5.05;;
55224;SDS011;41091;49.400;8.684;2023-07-24T13:04:42;8.40;;;5.00;;
55224;SDS011;41091;49.400;8.684;2023-07-24T13:07:07;7.35;;;5.63;;
55224;SDS011;41091;49.400;8.684;2023-07-24T13:09:32;4.78;;;4.30;;
55224;SDS011;41091;49.400;8.684;2023-07-24T13:12:00;6.68;;;4.93;;
55224;SDS011;41091;49.400;8.684;2023-07-24T13:14:28;6.97;;;5.28;;
55224;SDS011;41091;49.400;8.684;2023-07-24T13:16:53;8.35;;;4.78;;
55224;SDS011;41091;49.400;8.684;2023-07-24T13:19:18;6.78;;;4.80;;
55224;SDS011;41091;49.400;8.684;2023-07-24T13:21:44;11.55;;;5.10;;
55224;SDS011;41091;49.400;8.684;2023-07-24T13:24:10;6.35;;;4.82;;
55224;SDS011;41091;49.400;8.684;2023-07-24T13:26:38;6.40;;;4.85;;
55224;SDS011;41091;49.400;8.684;2023-07-24T13:29:03;7.03;;;4.97;;
55224;SDS011;41091;49.400;8.684;2023-07-24T13:31:28;8.95;;;4.90;;
55224;SDS011;41091;49.400;8.684;2023-07-24T13:33:55;6.68;;;4.97;;
55224;SDS011;41091;49.400;8.684;2023-07-24T13:36:21;6.38;;;4.78;;
55224;SDS011;41091;49.400;8.684;2023-07-24T13:38:46;5.78;;;5.20;;
55224;SDS011;41091;49.400;8.684;2023-07-24T13:41:15;4.45;;;4.05;;
55224;SDS011;41091;49.400;8.684;2023-07-24T13:43:40;9.25;;;5.28;;
55224;SDS011;41091;49.400;8.684;2023-07-24T13:46:06;6.32;;;5.20;;
55224;SDS011;41091;49.400;8.684;2023-07-24T13:48:34;7.88;;;5.25;;
55224;SDS011;41091;49.400;8.684;2023-07-24T13:50:59;5.85;;;4.88;;
55224;SDS011;41091;49.400;8.684;2023-07-24T13:53:25;8.45;;;5.20;;
55224;SDS011;41091;49.400;8.684;2023-07-24T13:55:50;6.07;;;4.85;;
55224;SDS011;41091;49.400;8.684;2023-07-24T13:58:16;9.25;;;5.32;;
55224;SDS011;41091;49.400;8.684;2023-07-24T14:00:41;6.43;;;4.70;;
55224;SDS011;41091;49.400;8.684;2023-07-24T14:03:09;5.85;;;4.78;;
55224;SDS011;41091;49.400;8.684;2023-07-24T14:05:34;8.00;;;5.60;;
55224;SDS011;41091;49.400;8.684;2023-07-24T14:08:03;6.28;;;4.95;;
55224;SDS011;41091;49.400;8.684;2023-07-24T14:10:29;5.00;;;4.50;;
55224;SDS011;41091;49.400;8.684;2023-07-24T14:12:54;10.02;;;4.93;;
55224;SDS011;41091;49.400;8.684;2023-07-24T14:15:19;6.10;;;4.78;;
55224;SDS011;41091;49.400;8.684;2023-07-24T14:17:47;9.35;;;5.63;;
55224;SDS011;41091;49.400;8.684;2023-07-24T14:20:15;6.25;;;4.55;;
55224;SDS011;41091;49.400;8.684;2023-07-24T14:22:45;9.00;;;5.00;;
55224;SDS011;41091;49.400;8.684;2023-07-24T14:25:11;4.70;;;4.25;;
55224;SDS011;41091;49.400;8.684;2023-07-24T14:27:36;17.45;;;10.50;;
55224;SDS011;41091;49.400;8.684;2023-07-24T14:30:01;33.45;;;10.93;;
55224;SDS011;41091;49.400;8.684;2023-07-24T14:32:27;11.13;;;5.13;;
55224;SDS011;41091;49.400;8.684;2023-07-24T14:34:52;12.77;;;5.13;;
55224;SDS011;41091;49.400;8.684;2023-07-24T14:37:20;15.43;;;6.03;;
55224;SDS011;41091;49.400;8.684;2023-07-24T14:39:45;10.85;;;5.53;;
55224;SDS011;41091;49.400;8.684;2023-07-24T14:42:11;10.80;;;5.32;;
55224;SDS011;41091;49.400;8.684;2023-07-24T14:44:37;9.40;;;5.55;;
55224;SDS011;41091;49.400;8.684;2023-07-24T14:47:02;9.57;;;5.60;;
55224;SDS011;41091;49.400;8.684;2023-07-24T14:49:32;14.95;;;6.03;;
55224;SDS011;41091;49.400;8.684;2023-07-24T14:52:00;13.55;;;5.50;;
55224;SDS011;41091;49.400;8.684;2023-07-24T14:54:25;7.35;;;5.10;;
55224;SDS011;41091;49.400;8.684;2023-07-24T14:56:51;9.10;;;5.07;;
55224;SDS011;41091;49.400;8.684;2023-07-24T14:59:16;10.50;;;5.43;;
55224;SDS011;41091;49.400;8.684;2023-07-24T15:01:42;9.88;;;6.00;;
55224;SDS011;41091;49.400;8.684;2023-07-24T15:04:09;15.40;;;5.35;;
55224;SDS011;41091;49.400;8.684;2023-07-24T15:06:35;8.02;;;6.05;;